createdAt,value
2019-04-06T00:01:55.917Z,4.10
2019-04-06T00:04:26.219Z,4.10
2019-04-06T00:06:56.501Z,4.10
2019-04-06T00:09:26.831Z,4.10
2019-04-06T00:11:57.117Z,4.10
2019-04-06T00:14:27.340Z,4.10
2019-04-06T00:16:57.548Z,4.00
2019-04-06T00:19:27.873Z,4.00
2019-04-06T00:21:58.274Z,4.10
2019-04-06T00:24:28.632Z,4.00
2019-04-06T00:26:59.038Z,4.00
2019-04-06T00:29:29.484Z,4.00
2019-04-06T00:32:04.080Z,4.00
2019-04-06T00:34:34.436Z,4.00
2019-04-06T00:37:04.785Z,3.90
2019-04-06T00:39:35.097Z,3.90
2019-04-06T00:42:05.837Z,3.90
2019-04-06T00:44:36.234Z,3.80
2019-04-06T00:47:06.598Z,3.80
2019-04-06T00:49:36.924Z,3.80
2019-04-06T00:52:07.173Z,3.70
2019-04-06T00:54:37.626Z,3.70
2019-04-06T00:57:07.917Z,3.70
2019-04-06T00:59:38.637Z,3.60
2019-04-06T01:02:10.033Z,3.60
2019-04-06T01:04:40.325Z,3.50
2019-04-06T01:07:10.880Z,3.50
2019-04-06T01:09:41.185Z,3.40
2019-04-06T01:12:11.597Z,3.40
2019-04-06T01:14:41.997Z,3.40
2019-04-06T01:17:12.305Z,3.40
2019-04-06T01:19:42.933Z,3.40
2019-04-06T01:22:13.207Z,3.30
2019-04-06T01:24:43.601Z,3.30
2019-04-06T01:27:13.977Z,3.40
2019-04-06T01:29:44.293Z,3.40
2019-04-06T01:32:14.573Z,3.40
2019-04-06T01:34:44.773Z,3.40
2019-04-06T01:37:15.090Z,3.50
2019-04-06T01:39:45.485Z,3.50
2019-04-06T01:42:16.017Z,3.50
2019-04-06T01:44:46.212Z,3.50
2019-04-06T01:47:16.430Z,3.50
2019-04-06T01:49:46.776Z,3.50
2019-04-06T01:52:17.007Z,3.50
2019-04-06T01:54:47.225Z,3.50
2019-04-06T01:57:17.433Z,3.60
2019-04-06T01:59:47.917Z,3.60
2019-04-06T02:02:19.761Z,3.60
2019-04-06T02:04:50.061Z,3.70
2019-04-06T02:07:20.386Z,3.70
2019-04-06T02:09:50.654Z,3.80
2019-04-06T02:12:21.109Z,3.80
2019-04-06T02:14:51.435Z,3.90
2019-04-06T02:17:21.949Z,4.00
2019-04-06T02:19:52.432Z,4.00
2019-04-06T02:22:22.760Z,4.20
2019-04-06T02:24:53.137Z,4.20
2019-04-06T02:27:23.357Z,4.20
2019-04-06T02:30:11.351Z,4.30
2019-04-06T02:32:43.436Z,4.30
2019-04-06T02:35:33.299Z,4.40
2019-04-06T02:38:08.025Z,4.40
2019-04-06T02:40:42.683Z,4.50
2019-04-06T02:43:17.573Z,4.50
2019-04-06T02:45:47.831Z,4.50
2019-04-06T02:48:18.201Z,4.50
2019-04-06T02:50:48.600Z,4.60
2019-04-06T02:53:18.898Z,4.60
2019-04-06T02:55:49.348Z,4.60
2019-04-06T02:58:19.649Z,4.60
2019-04-06T03:00:49.889Z,4.60
2019-04-06T03:03:20.407Z,4.60
2019-04-06T03:05:50.705Z,4.70
2019-04-06T03:08:21.151Z,4.70
2019-04-06T03:10:51.598Z,4.70
2019-04-06T03:13:21.970Z,4.70
2019-04-06T03:15:52.385Z,4.80
2019-04-06T03:18:22.609Z,4.70
2019-04-06T03:20:53.002Z,4.70
2019-04-06T03:23:24.952Z,4.80
2019-04-06T03:25:55.213Z,4.70
2019-04-06T03:28:25.522Z,4.70
2019-04-06T03:30:55.995Z,4.70
2019-04-06T03:33:26.571Z,4.70
2019-04-06T03:35:56.979Z,4.70
2019-04-06T03:38:27.246Z,4.70
2019-04-06T03:40:57.519Z,4.70
2019-04-06T03:43:27.823Z,4.70
2019-04-06T03:45:58.146Z,4.70
2019-04-06T03:48:28.649Z,4.70
2019-04-06T03:50:58.973Z,4.70
2019-04-06T03:53:29.184Z,4.70
2019-04-06T03:55:59.461Z,4.60
2019-04-06T03:58:29.861Z,4.60
2019-04-06T04:01:00.346Z,4.60
2019-04-06T04:03:30.885Z,4.60
2019-04-06T04:06:01.106Z,4.60
2019-04-06T04:08:31.377Z,4.60
2019-04-06T04:11:01.574Z,4.60
2019-04-06T04:13:31.923Z,4.60
2019-04-06T04:16:02.204Z,4.60
2019-04-06T04:18:32.655Z,4.60
2019-04-06T04:21:02.951Z,4.70
2019-04-06T04:23:33.339Z,4.70
2019-04-06T04:26:03.705Z,4.70
2019-04-06T04:28:34.056Z,4.70
2019-04-06T04:31:04.550Z,4.70
2019-04-06T04:33:34.830Z,4.70
2019-04-06T04:36:05.152Z,4.80
2019-04-06T04:38:35.562Z,4.80
2019-04-06T04:41:05.918Z,4.90
2019-04-06T04:43:36.222Z,4.90
2019-04-06T04:46:06.686Z,4.90
2019-04-06T04:48:37.129Z,5.00
2019-04-06T04:51:07.524Z,5.00
2019-04-06T04:53:37.993Z,5.00
2019-04-06T04:56:08.321Z,5.10
2019-04-06T04:58:38.919Z,5.10
2019-04-06T05:01:09.497Z,5.20
2019-04-06T05:03:40.096Z,5.10
2019-04-06T05:06:10.478Z,5.10
2019-04-06T05:08:40.764Z,5.20
2019-04-06T05:11:11.184Z,5.20
2019-04-06T05:13:41.569Z,5.20
2019-04-06T05:16:12.898Z,5.30
2019-04-06T05:18:43.668Z,5.30
2019-04-06T05:21:14.308Z,5.30
2019-04-06T05:23:44.515Z,5.40
2019-04-06T05:26:14.912Z,5.40
2019-04-06T05:28:45.189Z,5.40
2019-04-06T05:31:15.480Z,5.50
2019-04-06T05:33:46.002Z,5.50
2019-04-06T05:36:16.378Z,5.60
2019-04-06T05:38:46.864Z,5.60
2019-04-06T05:41:17.161Z,5.60
2019-04-06T05:43:47.520Z,5.70
2019-04-06T05:46:17.898Z,5.70
2019-04-06T05:48:48.128Z,5.80
2019-04-06T05:51:18.521Z,5.80
2019-04-06T05:53:48.792Z,5.90
2019-04-06T05:56:19.220Z,5.90
2019-04-06T05:58:49.731Z,6.00
2019-04-06T06:01:20.393Z,6.00
2019-04-06T06:03:50.617Z,6.00
2019-04-06T06:06:20.898Z,6.10
2019-04-06T06:08:51.288Z,6.10
2019-04-06T06:11:21.570Z,6.20
2019-04-06T06:13:52.268Z,6.20
2019-04-06T06:16:22.560Z,6.30
2019-04-06T06:18:53.350Z,6.30
2019-04-06T06:21:23.761Z,6.30
2019-04-06T06:23:54.044Z,6.30
2019-04-06T06:26:24.557Z,6.40
2019-04-06T06:28:54.868Z,6.40
2019-04-06T06:31:25.142Z,6.40
2019-04-06T06:33:55.495Z,6.40
2019-04-06T06:36:25.965Z,6.40
2019-04-06T06:38:56.177Z,6.40
2019-04-06T06:41:26.449Z,6.40
2019-04-06T06:43:56.668Z,6.40
2019-04-06T06:46:26.953Z,6.50
2019-04-06T06:48:57.444Z,6.50
2019-04-06T06:51:27.985Z,6.60
2019-04-06T06:53:58.366Z,6.70
2019-04-06T06:56:28.769Z,6.80
2019-04-06T06:58:59.394Z,6.90
2019-04-06T07:01:30.017Z,7.00
2019-04-06T07:04:00.578Z,7.10
2019-04-06T07:06:31.145Z,7.20
2019-04-06T07:09:01.629Z,7.30
2019-04-06T07:11:32.009Z,7.30
2019-04-06T07:14:02.448Z,7.40
2019-04-06T07:16:33.481Z,7.40
2019-04-06T07:19:04.220Z,7.60
2019-04-06T07:21:34.709Z,7.70
2019-04-06T07:24:05.432Z,7.70
2019-04-06T07:26:35.777Z,7.80
2019-04-06T07:29:06.355Z,7.80
2019-04-06T07:31:36.964Z,7.80
2019-04-06T07:34:07.398Z,7.90
2019-04-06T07:36:38.249Z,8.10
2019-04-06T07:39:08.617Z,8.00
2019-04-06T07:41:39.122Z,8.00
2019-04-06T07:44:09.589Z,8.10
2019-04-06T07:46:40.161Z,8.20
2019-04-06T07:49:10.793Z,8.20
2019-04-06T07:51:41.192Z,8.20
2019-04-06T07:54:11.616Z,8.20
2019-04-06T07:56:42.306Z,8.20
2019-04-06T07:59:12.829Z,8.30
2019-04-06T08:01:43.308Z,8.30
2019-04-06T08:04:13.624Z,8.30
2019-04-06T08:06:43.873Z,8.40
2019-04-06T08:09:14.470Z,8.50
2019-04-06T08:11:44.908Z,8.50
2019-04-06T08:14:15.133Z,8.60
2019-04-06T08:16:45.532Z,8.70
2019-04-06T08:19:16.017Z,8.80
2019-04-06T08:21:46.631Z,8.80
2019-04-06T08:24:17.025Z,8.80
2019-04-06T08:26:47.529Z,8.90
2019-04-06T08:29:18.004Z,9.00
2019-04-06T08:31:48.407Z,8.90
2019-04-06T08:34:19.059Z,9.00
2019-04-06T08:36:49.410Z,9.10
2019-04-06T08:39:20.103Z,9.10
2019-04-06T08:41:50.385Z,9.20
2019-04-06T08:44:20.890Z,9.30
2019-04-06T08:46:51.264Z,9.30
2019-04-06T08:49:21.557Z,9.40
2019-04-06T08:51:52.141Z,9.40
2019-04-06T08:54:22.426Z,9.40
2019-04-06T08:56:53.050Z,9.50
2019-04-06T08:59:23.604Z,9.50
2019-04-06T09:01:53.960Z,9.60
2019-04-06T09:04:24.479Z,9.60
2019-04-06T09:06:54.766Z,9.70
2019-04-06T09:09:25.340Z,9.70
2019-04-06T09:11:55.882Z,9.90
2019-04-06T09:14:26.643Z,10.10
2019-04-06T09:16:57.157Z,10.30
2019-04-06T09:19:27.637Z,10.20
2019-04-06T09:21:58.172Z,10.50
2019-04-06T09:24:28.677Z,10.50
2019-04-06T09:26:58.975Z,10.40
2019-04-06T09:29:29.613Z,10.50
2019-04-06T09:32:00.216Z,10.90
2019-04-06T09:34:31.327Z,10.70
2019-04-06T09:37:02.179Z,10.30
2019-04-06T09:39:32.776Z,10.10
2019-04-06T09:42:03.291Z,9.90
2019-04-06T09:44:47.329Z,9.70
2019-04-06T09:47:25.322Z,9.70
2019-04-06T09:50:13.651Z,9.90
2019-04-06T09:52:54.897Z,10.00
2019-04-06T09:55:33.210Z,10.30
2019-04-06T09:58:05.377Z,10.40
2019-04-06T10:00:37.487Z,10.40
2019-04-06T10:03:21.604Z,10.60
2019-04-06T10:05:53.942Z,10.80
2019-04-06T10:08:38.488Z,11.00
2019-04-06T10:11:10.645Z,11.10
2019-04-06T10:13:59.682Z,11.40
2019-04-06T10:16:37.569Z,11.70
2019-04-06T10:19:22.208Z,11.70
2019-04-06T10:22:00.269Z,11.60
2019-04-06T10:24:41.084Z,11.70
2019-04-06T10:27:19.685Z,11.70
2019-04-06T10:30:00.748Z,11.70
2019-04-06T10:32:32.807Z,11.80
2019-04-06T10:35:21.849Z,11.90
2019-04-06T10:38:10.065Z,12.00
2019-04-06T10:40:58.289Z,12.10
2019-04-06T10:43:36.104Z,12.10
2019-04-06T10:46:08.143Z,12.00
2019-04-06T10:48:40.404Z,12.00
2019-04-06T10:51:28.753Z,11.90
2019-04-06T10:54:09.569Z,11.90
2019-04-06T10:56:50.676Z,12.00
2019-04-06T10:59:31.821Z,12.10
2019-04-06T11:02:09.881Z,12.20
2019-04-06T11:04:42.128Z,12.30
2019-04-06T11:07:29.739Z,12.40
2019-04-06T11:10:07.987Z,12.60
2019-04-06T11:12:42.941Z,12.50
2019-04-06T11:15:15.147Z,12.60
2019-04-06T11:17:56.332Z,12.80
2019-04-06T11:20:44.882Z,12.50
2019-04-06T11:23:17.197Z,12.50
2019-04-06T11:26:01.455Z,12.20
2019-04-06T11:28:39.450Z,12.40
2019-04-06T11:31:14.512Z,12.70
2019-04-06T11:34:03.361Z,12.70
2019-04-06T11:36:51.432Z,12.50
2019-04-06T11:39:41.894Z,12.60
2019-04-06T11:42:25.929Z,12.60
2019-04-06T11:45:03.945Z,12.40
2019-04-06T11:47:41.845Z,12.90
2019-04-06T11:50:14.166Z,13.40
2019-04-06T11:53:01.301Z,13.50
2019-04-06T11:55:36.413Z,13.80
2019-04-06T11:58:14.404Z,14.00
2019-04-06T12:01:02.992Z,14.10
2019-04-06T12:03:35.151Z,14.00
2019-04-06T12:06:12.921Z,13.70
2019-04-06T12:09:01.559Z,13.70
2019-04-06T12:11:45.508Z,13.90
2019-04-06T12:14:20.436Z,14.10
2019-04-06T12:16:55.529Z,14.20
2019-04-06T12:19:44.018Z,13.90
2019-04-06T12:22:28.441Z,13.70
2019-04-06T12:25:19.150Z,13.60
2019-04-06T12:27:51.874Z,13.70
2019-04-06T12:30:38.211Z,14.10
2019-04-06T12:33:07.244Z,14.10
2019-04-06T12:35:55.789Z,14.30
2019-04-06T12:38:34.449Z,14.50
2019-04-06T12:41:06.917Z,14.10
2019-04-06T12:43:55.349Z,14.10
2019-04-06T12:46:27.532Z,14.00
2019-04-06T12:49:14.893Z,13.90
2019-04-06T12:52:03.839Z,13.70
2019-04-06T12:54:45.380Z,13.90
2019-04-06T12:57:17.779Z,13.90
2019-04-06T12:59:50.055Z,13.90
2019-04-06T13:02:28.347Z,13.70
2019-04-06T13:05:00.628Z,13.80
2019-04-06T13:07:32.866Z,13.90
2019-04-06T13:10:10.065Z,14.00
2019-04-06T13:12:51.443Z,14.10
2019-04-06T13:15:23.821Z,14.10
2019-04-06T13:17:56.020Z,13.60
2019-04-06T13:20:28.265Z,13.60
2019-04-06T13:23:12.765Z,13.60
2019-04-06T13:25:51.021Z,13.40
2019-04-06T13:28:23.149Z,13.00
2019-04-06T13:31:04.012Z,13.30
2019-04-06T13:33:35.350Z,13.40
2019-04-06T13:36:16.182Z,13.60
2019-04-06T13:39:00.472Z,13.60
2019-04-06T13:41:41.690Z,13.80
2019-04-06T13:44:31.820Z,13.90
2019-04-06T13:47:06.285Z,13.60
2019-04-06T13:49:44.673Z,13.10
2019-04-06T13:52:23.188Z,13.60
2019-04-06T13:55:12.099Z,13.50
2019-04-06T13:57:59.276Z,14.10
2019-04-06T14:00:47.770Z,13.70
2019-04-06T14:03:29.306Z,13.70
2019-04-06T14:06:18.164Z,13.50
2019-04-06T14:09:06.705Z,13.60
2019-04-06T14:11:41.502Z,13.80
2019-04-06T14:14:19.453Z,13.60
2019-04-06T14:16:51.597Z,13.80
2019-04-06T14:19:35.566Z,13.80
2019-04-06T14:22:07.843Z,13.90
2019-04-06T14:24:46.157Z,13.80
2019-04-06T14:27:27.978Z,13.70
2019-04-06T14:30:15.629Z,13.80
2019-04-06T14:32:48.076Z,13.20
2019-04-06T14:35:26.296Z,13.50
2019-04-06T14:37:58.474Z,13.40
2019-04-06T14:40:45.561Z,13.50
2019-04-06T14:43:33.922Z,13.40
2019-04-06T14:46:18.542Z,13.50
2019-04-06T14:48:51.147Z,13.60
2019-04-06T14:51:39.159Z,13.60
2019-04-06T14:54:29.345Z,13.60
2019-04-06T14:57:02.500Z,13.70
2019-04-06T14:59:51.128Z,13.60
2019-04-06T15:02:35.452Z,13.60
2019-04-06T15:05:14.816Z,13.60
2019-04-06T15:07:59.006Z,13.50
2019-04-06T15:10:31.746Z,13.40
2019-04-06T15:13:16.371Z,13.40
2019-04-06T15:15:58.020Z,13.40
2019-04-06T15:18:41.959Z,13.40
2019-04-06T15:21:32.305Z,13.30
2019-04-06T15:24:10.499Z,13.30
2019-04-06T15:26:43.107Z,13.10
2019-04-06T15:29:18.184Z,12.90
2019-04-06T15:31:51.753Z,12.50
2019-04-06T15:34:24.277Z,12.00
2019-04-06T15:36:56.758Z,11.50
2019-04-06T15:39:31.684Z,11.00
2019-04-06T15:42:16.309Z,10.70
2019-04-06T15:44:51.561Z,10.50
2019-04-06T15:47:23.771Z,10.30
2019-04-06T15:49:56.514Z,10.10
2019-04-06T15:52:43.721Z,10.00
2019-04-06T15:55:31.732Z,9.80
2019-04-06T15:58:15.781Z,9.70
2019-04-06T16:01:04.912Z,9.50
2019-04-06T16:03:48.932Z,9.40
2019-04-06T16:06:21.100Z,9.20
2019-04-06T16:09:09.712Z,9.10
2019-04-06T16:11:50.588Z,9.00
2019-04-06T16:14:25.668Z,8.90
2019-04-06T16:16:58.017Z,8.70
2019-04-06T16:19:32.597Z,8.70
2019-04-06T16:22:16.425Z,8.60
2019-04-06T16:25:01.176Z,8.50
2019-04-06T16:27:33.307Z,8.50
2019-04-06T16:30:09.574Z,8.40
2019-04-06T16:32:41.704Z,8.40
2019-04-06T16:35:32.204Z,8.30
2019-04-06T16:38:07.732Z,8.30
2019-04-06T16:40:39.857Z,8.30
2019-04-06T16:43:11.966Z,8.20
2019-04-06T16:45:52.939Z,8.10
2019-04-06T16:48:39.821Z,8.10
2019-04-06T16:51:30.180Z,8.10
2019-04-06T16:54:02.221Z,8.10
2019-04-06T16:56:36.972Z,8.00
2019-04-06T16:59:12.008Z,7.90
2019-04-06T17:01:44.282Z,7.80
2019-04-06T17:04:16.725Z,7.80
2019-04-06T17:06:54.833Z,7.80
2019-04-06T17:09:29.393Z,7.70
2019-04-06T17:12:04.145Z,7.70
2019-04-06T17:14:39.349Z,7.60
2019-04-06T17:17:11.869Z,7.50
2019-04-06T17:19:56.267Z,7.40
2019-04-06T17:22:30.964Z,7.30
2019-04-06T17:25:05.782Z,7.30
2019-04-06T17:27:46.772Z,7.20
2019-04-06T17:30:31.553Z,7.20
2019-04-06T17:33:03.628Z,7.20
2019-04-06T17:35:41.432Z,7.10
2019-04-06T17:38:19.769Z,7.00
2019-04-06T17:40:51.994Z,7.00
2019-04-06T17:43:27.541Z,7.00
2019-04-06T17:46:00.034Z,7.00
2019-04-06T17:48:32.777Z,6.90
2019-04-06T17:51:05.394Z,6.90
2019-04-06T17:53:37.402Z,6.80
2019-04-06T17:56:25.019Z,6.80
2019-04-06T17:59:13.404Z,6.80
2019-04-06T18:02:02.122Z,6.80
2019-04-06T18:04:34.085Z,6.70
2019-04-06T18:07:12.292Z,6.70
2019-04-06T18:09:50.769Z,6.60
2019-04-06T18:12:35.136Z,6.60
2019-04-06T18:15:08.778Z,6.70
2019-04-06T18:17:39.341Z,6.70
2019-04-06T18:20:10.018Z,6.70
2019-04-06T18:22:40.405Z,6.70
2019-04-06T18:25:10.954Z,6.70
2019-04-06T18:27:41.173Z,6.70
2019-04-06T18:30:11.692Z,6.70
2019-04-06T18:32:59.984Z,6.70
2019-04-06T18:35:24.652Z,6.70
2019-04-06T18:37:56.888Z,6.70
2019-04-06T18:40:28.343Z,6.60
2019-04-06T18:42:58.901Z,6.60
2019-04-06T18:45:30.449Z,6.60
2019-04-06T18:48:00.964Z,6.50
2019-04-06T18:50:36.537Z,6.60
2019-04-06T18:53:03.580Z,6.50
2019-04-06T18:55:34.223Z,6.60
2019-04-06T18:58:11.683Z,6.50
2019-04-06T19:00:37.117Z,6.50
2019-04-06T19:03:14.715Z,6.50
2019-04-06T19:05:39.517Z,6.50
2019-04-06T19:08:09.725Z,6.50
2019-04-06T19:10:40.405Z,6.50
2019-04-06T19:13:10.805Z,6.50
2019-04-06T19:15:41.126Z,6.50
2019-04-06T19:18:11.491Z,6.50
2019-04-06T19:20:42.220Z,6.40
2019-04-06T19:23:13.621Z,6.50
2019-04-06T19:25:44.278Z,6.50
2019-04-06T19:28:14.636Z,6.50
2019-04-06T19:30:45.138Z,6.50
2019-04-06T19:33:23.312Z,6.60
2019-04-06T19:35:47.620Z,6.60
2019-04-06T19:38:17.888Z,6.60
2019-04-06T19:40:48.218Z,6.60
2019-04-06T19:43:18.749Z,6.60
2019-04-06T19:45:49.620Z,6.60
2019-04-06T19:48:20.302Z,6.60
2019-04-06T19:50:51.475Z,6.60
2019-04-06T19:53:22.414Z,6.70
2019-04-06T19:55:53.103Z,6.60
2019-04-06T19:58:23.656Z,6.60
2019-04-06T20:00:53.955Z,6.60
2019-04-06T20:03:34.015Z,6.50
2019-04-06T20:05:56.293Z,6.60
2019-04-06T20:08:27.131Z,6.50
2019-04-06T20:10:57.677Z,6.50
2019-04-06T20:13:28.752Z,6.50
2019-04-06T20:15:59.859Z,6.50
2019-04-06T20:18:30.344Z,6.50
2019-04-06T20:21:00.878Z,6.50
2019-04-06T20:23:31.121Z,6.50
2019-04-06T20:26:01.433Z,6.50
2019-04-06T20:28:32.081Z,6.40
2019-04-06T20:31:02.598Z,6.40
2019-04-06T20:33:32.866Z,6.40
2019-04-06T20:36:03.500Z,6.30
2019-04-06T20:38:33.862Z,6.30
2019-04-06T20:41:04.392Z,6.20
2019-04-06T20:43:35.150Z,6.30
2019-04-06T20:46:05.771Z,6.20
2019-04-06T20:48:36.815Z,6.30
2019-04-06T20:51:07.887Z,6.30
2019-04-06T20:53:38.301Z,6.30
2019-04-06T20:56:09.039Z,6.30
2019-04-06T20:58:39.448Z,6.40
2019-04-06T21:01:10.013Z,6.40
2019-04-06T21:03:40.464Z,6.30
2019-04-06T21:06:11.179Z,6.30
2019-04-06T21:08:41.494Z,6.20
2019-04-06T21:11:11.985Z,6.20
2019-04-06T21:13:42.377Z,6.20
2019-04-06T21:16:12.781Z,6.20
2019-04-06T21:18:43.360Z,6.20
2019-04-06T21:21:14.331Z,6.20
2019-04-06T21:23:45.122Z,6.20
2019-04-06T21:26:16.080Z,6.20
2019-04-06T21:28:46.627Z,6.20
2019-04-06T21:31:17.680Z,6.20
2019-04-06T21:33:48.241Z,6.20
2019-04-06T21:36:19.062Z,6.20
2019-04-06T21:38:49.669Z,6.20
2019-04-06T21:41:20.069Z,6.20
2019-04-06T21:43:51.067Z,6.20
2019-04-06T21:46:21.454Z,6.20
2019-04-06T21:48:52.251Z,6.30
2019-04-06T21:51:23.007Z,6.40
2019-04-06T21:53:53.591Z,6.50
2019-04-06T21:56:24.194Z,6.50
2019-04-06T21:58:54.957Z,6.50
2019-04-06T22:01:25.709Z,6.50
2019-04-06T22:03:56.297Z,6.60
2019-04-06T22:06:27.053Z,6.60
2019-04-06T22:08:57.739Z,6.60
2019-04-06T22:11:28.832Z,6.60
2019-04-06T22:14:00.261Z,6.50
2019-04-06T22:16:30.764Z,6.60
2019-04-06T22:19:01.324Z,6.60
2019-04-06T22:21:32.077Z,6.60
2019-04-06T22:24:03.061Z,6.70
2019-04-06T22:26:33.922Z,6.70
2019-04-06T22:29:04.802Z,6.70
2019-04-06T22:31:35.877Z,6.70
2019-04-06T22:34:06.269Z,6.70
2019-04-06T22:36:36.860Z,6.70
2019-04-06T22:39:09.125Z,6.70
2019-04-06T22:41:39.868Z,6.60
2019-04-06T22:44:11.090Z,6.50
2019-04-06T22:46:41.879Z,6.40
2019-04-06T22:49:12.581Z,6.30
2019-04-06T22:51:43.492Z,6.10
2019-04-06T22:54:15.321Z,6.00
2019-04-06T22:56:46.163Z,5.80
2019-04-06T22:59:17.747Z,5.70
2019-04-06T23:01:48.281Z,5.70
2019-04-06T23:04:20.375Z,5.70
2019-04-06T23:07:01.125Z,5.60
2019-04-06T23:09:31.420Z,5.50
2019-04-06T23:12:02.007Z,5.50
2019-04-06T23:14:32.851Z,5.50
2019-04-06T23:17:03.756Z,5.40
2019-04-06T23:19:34.125Z,5.30
2019-04-06T23:22:04.748Z,5.30
2019-04-06T23:24:34.969Z,5.20
2019-04-06T23:27:05.715Z,5.20
2019-04-06T23:29:36.494Z,5.20
2019-04-06T23:32:06.910Z,5.20
2019-04-06T23:34:37.389Z,5.20
2019-04-06T23:37:08.362Z,5.20
2019-04-06T23:39:39.020Z,5.30
2019-04-06T23:42:10.154Z,5.30
2019-04-06T23:44:40.930Z,5.30
2019-04-06T23:47:11.343Z,5.30
2019-04-06T23:49:41.858Z,5.30
2019-04-06T23:52:12.167Z,5.30
2019-04-06T23:54:42.579Z,5.30
2019-04-06T23:57:13.036Z,5.30
2019-04-06T23:59:43.397Z,5.30
